createdAt,value
2024-04-16T00:01:45.978Z,100089.34
2024-04-16T00:04:12.765Z,100093.38
2024-04-16T00:06:39.435Z,100078.41
2024-04-16T00:09:06.498Z,100078.59
2024-04-16T00:11:33.182Z,100073.88
2024-04-16T00:13:59.825Z,100067.47
2024-04-16T00:16:26.614Z,100063.56
2024-04-16T00:18:53.331Z,100040.22
2024-04-16T00:21:19.941Z,100054.56
2024-04-16T00:23:46.546Z,100060.06
2024-04-16T00:26:13.125Z,100048.28
2024-04-16T00:28:39.726Z,100065.69
2024-04-16T00:31:06.426Z,100040.69
2024-04-16T00:33:32.983Z,100031.34
2024-04-16T00:35:59.610Z,100038.28
2024-04-16T00:38:26.218Z,100045.38
2024-04-16T00:40:52.786Z,100041.19
2024-04-16T00:43:20.633Z,100047.16
2024-04-16T00:45:51.616Z,100043.22
2024-04-16T00:48:19.895Z,100036.78
2024-04-16T00:50:47.806Z,100037.25
2024-04-16T00:53:14.803Z,100032.44
2024-04-16T00:55:41.604Z,100012.53
2024-04-16T00:58:09.642Z,100024.19
2024-04-16T01:00:36.597Z,100023.38
2024-04-16T01:03:03.550Z,100017.22
2024-04-16T01:05:30.203Z,100020.47
2024-04-16T01:07:56.846Z,100019.31
2024-04-16T01:10:23.482Z,100013.22
2024-04-16T01:12:50.043Z,100013.84
2024-04-16T01:15:16.634Z,100000.47
2024-04-16T01:17:43.330Z,100006.59
2024-04-16T01:20:10.867Z,100003.69
2024-04-16T01:22:37.726Z,99991.31
2024-04-16T01:25:04.621Z,99997.59
2024-04-16T01:27:31.223Z,99998.53
2024-04-16T01:29:57.812Z,100005.63
2024-04-16T01:32:24.624Z,100025.06
2024-04-16T01:34:51.283Z,100022.47
2024-04-16T01:37:17.838Z,100015.69
2024-04-16T01:39:44.454Z,100009.69
2024-04-16T01:42:11.013Z,100022.75
2024-04-16T01:44:37.560Z,100002.66
2024-04-16T01:47:05.291Z,100000.25
2024-04-16T01:49:32.171Z,99996.81
2024-04-16T01:51:58.763Z,99986.22
2024-04-16T01:54:25.366Z,99990.38
2024-04-16T01:56:52.400Z,99988.59
2024-04-16T01:59:19.047Z,99989.63
2024-04-16T02:01:45.882Z,99982.09
2024-04-16T02:04:12.686Z,99986.75
2024-04-16T02:06:39.346Z,99975.75
2024-04-16T02:09:05.934Z,99983.59
2024-04-16T02:11:32.511Z,99977.66
2024-04-16T02:13:59.230Z,99980.38
2024-04-16T02:16:26.288Z,99978.44
2024-04-16T02:18:52.900Z,99964.66
2024-04-16T02:21:19.493Z,99963.28
2024-04-16T02:23:47.609Z,99961.72
2024-04-16T02:26:14.180Z,99964.72
2024-04-16T02:28:40.763Z,99975.84
2024-04-16T02:31:07.632Z,99963.03
2024-04-16T02:33:34.378Z,99953.38
2024-04-16T02:36:01.824Z,99955.38
2024-04-16T02:38:28.584Z,99935.44
2024-04-16T02:40:55.326Z,99919.94
2024-04-16T02:43:21.990Z,99933.66
2024-04-16T02:45:48.677Z,99929.47
2024-04-16T02:48:15.575Z,99929.13
2024-04-16T02:50:42.200Z,99930.56
2024-04-16T02:53:09.093Z,99925.22
2024-04-16T02:55:36.075Z,99927.50
2024-04-16T02:58:02.701Z,99920.09
2024-04-16T03:00:29.606Z,99918.97
2024-04-16T03:02:56.330Z,99932.13
2024-04-16T03:05:22.982Z,99921.31
2024-04-16T03:07:52.350Z,99931.13
2024-04-16T03:10:19.042Z,99913.63
2024-04-16T03:12:46.057Z,99904.19
2024-04-16T03:15:13.318Z,99902.56
2024-04-16T03:17:40.101Z,99884.25
2024-04-16T03:20:08.182Z,99850.75
2024-04-16T03:22:34.848Z,99876.03
2024-04-16T03:25:01.477Z,99876.19
2024-04-16T03:27:28.121Z,99850.00
2024-04-16T03:29:54.671Z,99846.78
2024-04-16T03:32:22.609Z,99854.53
2024-04-16T03:34:49.204Z,99851.59
2024-04-16T03:37:15.892Z,99856.16
2024-04-16T03:39:42.568Z,99857.75
2024-04-16T03:42:09.261Z,99864.47
2024-04-16T03:44:35.827Z,99860.97
2024-04-16T03:47:02.459Z,99849.72
2024-04-16T03:49:29.107Z,99852.88
2024-04-16T03:51:55.667Z,99844.03
2024-04-16T03:54:22.389Z,99853.53
2024-04-16T03:56:49.211Z,99838.75
2024-04-16T03:59:38.575Z,99834.53
2024-04-16T04:02:08.508Z,99824.88
2024-04-16T04:04:35.598Z,99832.59
2024-04-16T04:07:02.319Z,99814.16
2024-04-16T04:09:28.884Z,99801.59
2024-04-16T04:11:55.450Z,99810.78
2024-04-16T04:14:22.009Z,99793.91
2024-04-16T04:16:48.581Z,99791.13
2024-04-16T04:19:15.200Z,99781.84
2024-04-16T04:21:41.801Z,99782.81
2024-04-16T04:24:15.864Z,99781.19
2024-04-16T04:26:49.900Z,99775.91
2024-04-16T04:29:16.943Z,99760.44
2024-04-16T04:31:43.628Z,99746.91
2024-04-16T04:34:10.315Z,99753.16
2024-04-16T04:36:37.229Z,99732.28
2024-04-16T04:39:03.986Z,99732.13
2024-04-16T04:41:30.601Z,99724.56
2024-04-16T04:43:57.813Z,99705.75
2024-04-16T04:46:24.446Z,99683.69
2024-04-16T04:48:51.068Z,99697.22
2024-04-16T04:51:17.916Z,99701.25
2024-04-16T04:53:44.471Z,99685.00
2024-04-16T04:56:11.052Z,99704.31
2024-04-16T04:58:37.678Z,99712.38
2024-04-16T05:01:04.623Z,99707.22
2024-04-16T05:03:31.265Z,99711.69
2024-04-16T05:05:57.853Z,99710.91
2024-04-16T05:08:25.892Z,99703.84
2024-04-16T05:10:52.757Z,99710.13
2024-04-16T05:13:19.666Z,99713.69
2024-04-16T05:15:46.855Z,99715.94
2024-04-16T05:18:13.649Z,99714.84
2024-04-16T05:20:40.486Z,99721.59
2024-04-16T05:23:07.160Z,99736.38
2024-04-16T05:25:33.837Z,99722.88
2024-04-16T05:28:00.553Z,99737.19
2024-04-16T05:30:27.166Z,99732.03
2024-04-16T05:32:56.709Z,99741.19
2024-04-16T05:35:23.426Z,99742.09
2024-04-16T05:37:50.064Z,99766.09
2024-04-16T05:40:17.870Z,99762.69
2024-04-16T05:42:45.604Z,99752.19
2024-04-16T05:45:12.325Z,99743.69
2024-04-16T05:47:38.990Z,99753.16
2024-04-16T05:50:05.990Z,99753.63
2024-04-16T05:52:32.609Z,99776.84
2024-04-16T05:54:59.205Z,99749.78
2024-04-16T05:57:25.764Z,99778.63
2024-04-16T05:59:52.719Z,99768.78
2024-04-16T06:02:19.320Z,99789.72
2024-04-16T06:04:45.989Z,99783.25
2024-04-16T06:07:12.658Z,99783.09
2024-04-16T06:09:39.224Z,99780.16
2024-04-16T06:12:06.264Z,99793.03
2024-04-16T06:14:33.756Z,99777.44
2024-04-16T06:17:00.417Z,99796.72
2024-04-16T06:19:27.087Z,99796.88
2024-04-16T06:21:53.707Z,99801.25
2024-04-16T06:24:20.301Z,99794.28
2024-04-16T06:26:47.859Z,99807.03
2024-04-16T06:29:14.434Z,99819.88
2024-04-16T06:31:41.097Z,99816.19
2024-04-16T06:34:07.721Z,99818.75
2024-04-16T06:36:34.318Z,99818.94
2024-04-16T06:39:00.954Z,99824.09
2024-04-16T06:41:27.614Z,99820.50
2024-04-16T06:43:54.196Z,99817.75
2024-04-16T06:46:20.888Z,99826.34
2024-04-16T06:48:59.948Z,99830.56
2024-04-16T06:51:35.020Z,99813.56
2024-04-16T06:54:01.615Z,99825.97
2024-04-16T06:56:28.225Z,99826.13
2024-04-16T06:58:54.790Z,99826.28
2024-04-16T07:01:27.016Z,99838.50
2024-04-16T07:03:53.938Z,99829.72
2024-04-16T07:06:20.539Z,99832.31
2024-04-16T07:08:47.094Z,99833.47
2024-04-16T07:11:14.175Z,99854.69
2024-04-16T07:13:45.245Z,99850.00
2024-04-16T07:16:15.318Z,99850.47
2024-04-16T07:18:42.050Z,99876.81
2024-04-16T07:21:08.999Z,99861.63
2024-04-16T07:23:35.588Z,99868.66
2024-04-16T07:26:05.164Z,99868.25
2024-04-16T07:28:33.494Z,99880.34
2024-04-16T07:31:06.288Z,99884.09
2024-04-16T07:33:40.078Z,99905.38
2024-04-16T07:36:10.085Z,99900.44
2024-04-16T07:38:37.108Z,99919.94
2024-04-16T07:41:03.960Z,99919.63
2024-04-16T07:43:30.631Z,99933.81
2024-04-16T07:45:57.307Z,99938.31
2024-04-16T07:48:24.030Z,99942.38
2024-04-16T07:50:50.710Z,99945.44
2024-04-16T07:53:17.409Z,99934.94
2024-04-16T07:55:44.345Z,99937.38
2024-04-16T07:58:10.968Z,99952.81
2024-04-16T08:00:40.522Z,99960.31
2024-04-16T08:03:08.888Z,99953.63
2024-04-16T08:05:37.455Z,99959.72
2024-04-16T08:08:04.440Z,99959.28
2024-04-16T08:10:31.039Z,99964.50
2024-04-16T08:12:57.665Z,99971.16
2024-04-16T08:15:24.344Z,99991.94
2024-04-16T08:17:51.276Z,99997.53
2024-04-16T08:20:17.957Z,99999.16
2024-04-16T08:22:44.624Z,100006.38
2024-04-16T08:25:11.235Z,100014.72
2024-04-16T08:27:39.876Z,100015.59
2024-04-16T08:30:07.078Z,100033.13
2024-04-16T08:32:33.692Z,100038.97
2024-04-16T08:35:00.490Z,100037.75
2024-04-16T08:37:27.275Z,100044.03
2024-04-16T08:39:53.972Z,100042.66
2024-04-16T08:42:20.649Z,100048.56
2024-04-16T08:44:47.695Z,100050.28
2024-04-16T08:47:14.765Z,100052.16
2024-04-16T08:49:43.384Z,100066.41
2024-04-16T08:52:10.775Z,100073.91
2024-04-16T08:54:39.083Z,100077.66
2024-04-16T08:57:06.253Z,100083.75
2024-04-16T08:59:35.213Z,100090.91
2024-04-16T09:02:02.414Z,100100.00
2024-04-16T09:04:29.769Z,100098.63
2024-04-16T09:06:56.708Z,100108.25
2024-04-16T09:09:23.326Z,100106.75
2024-04-16T09:11:50.937Z,100110.56
2024-04-16T09:14:18.652Z,100120.25
2024-04-16T09:16:46.014Z,100120.06
2024-04-16T09:19:14.027Z,100120.22
2024-04-16T09:21:40.711Z,100130.34
2024-04-16T09:24:07.925Z,100115.63
2024-04-16T09:26:35.661Z,100126.72
2024-04-16T09:29:02.301Z,100142.75
2024-04-16T09:31:28.957Z,100126.91
2024-04-16T09:34:08.595Z,100129.78
2024-04-16T09:36:35.752Z,100149.53
2024-04-16T09:39:02.415Z,100146.28
2024-04-16T09:41:29.660Z,100134.19
2024-04-16T09:43:56.875Z,100163.59
2024-04-16T09:46:24.002Z,100166.34
2024-04-16T09:48:51.658Z,100173.78
2024-04-16T09:51:18.876Z,100180.31
2024-04-16T09:53:47.022Z,100193.06
2024-04-16T09:56:14.356Z,100203.28
2024-04-16T09:58:42.063Z,100204.53
2024-04-16T10:01:10.255Z,100193.19
2024-04-16T10:03:37.845Z,100219.63
2024-04-16T10:06:04.798Z,100233.81
2024-04-16T10:08:31.649Z,100232.81
2024-04-16T10:11:01.362Z,100238.00
2024-04-16T10:13:34.259Z,100240.59
2024-04-16T10:16:01.130Z,100246.34
2024-04-16T10:18:29.783Z,100247.78
2024-04-16T10:21:00.102Z,100264.66
2024-04-16T10:23:29.762Z,100271.94
2024-04-16T10:25:57.626Z,100268.25
2024-04-16T10:28:28.499Z,100265.38
2024-04-16T10:31:02.844Z,100274.28
2024-04-16T10:33:33.684Z,100270.28
2024-04-16T10:36:00.403Z,100274.19
2024-04-16T10:38:27.283Z,100274.88
2024-04-16T10:40:54.973Z,100250.53
2024-04-16T10:43:25.692Z,100271.16
2024-04-16T10:45:53.252Z,100280.69
2024-04-16T10:48:23.383Z,100279.97
2024-04-16T10:50:50.972Z,100286.31
2024-04-16T10:53:19.798Z,100286.28
2024-04-16T10:55:47.542Z,100301.28
2024-04-16T10:58:16.410Z,100324.38
2024-04-16T11:00:43.984Z,100332.41
2024-04-16T11:03:11.682Z,100337.22
2024-04-16T11:05:40.385Z,100343.59
2024-04-16T11:08:08.426Z,100340.53
2024-04-16T11:10:35.684Z,100343.00
2024-04-16T11:13:02.878Z,100342.44
2024-04-16T11:15:34.470Z,100344.44
2024-04-16T11:18:04.185Z,100354.53
2024-04-16T11:20:30.816Z,100352.84
2024-04-16T11:22:58.797Z,100361.41
2024-04-16T11:25:31.056Z,100353.91
2024-04-16T11:27:57.689Z,100359.25
2024-04-16T11:30:25.140Z,100365.66
2024-04-16T11:32:52.508Z,100371.94
2024-04-16T11:35:19.302Z,100386.72
2024-04-16T11:37:46.085Z,100385.50
2024-04-16T11:40:13.129Z,100388.91
2024-04-16T11:42:40.713Z,100394.56
2024-04-16T11:45:07.784Z,100393.94
2024-04-16T11:47:34.468Z,100365.84
2024-04-16T11:50:02.431Z,100403.78
2024-04-16T11:52:29.322Z,100405.06
2024-04-16T11:54:56.007Z,100387.97
2024-04-16T11:57:22.557Z,100403.00
2024-04-16T11:59:50.249Z,100402.03
2024-04-16T12:02:16.856Z,100399.31
2024-04-16T12:04:43.806Z,100412.38
2024-04-16T12:07:10.460Z,100414.91
2024-04-16T12:09:37.060Z,100421.88
2024-04-16T12:12:03.801Z,100419.38
2024-04-16T12:14:30.350Z,100430.50
2024-04-16T12:16:56.954Z,100428.78
2024-04-16T12:19:23.655Z,100433.84
2024-04-16T12:21:50.223Z,100431.38
2024-04-16T12:24:16.838Z,100444.97
2024-04-16T12:26:43.402Z,100443.00
2024-04-16T12:29:09.983Z,100436.19
2024-04-16T12:31:36.667Z,100453.41
2024-04-16T12:34:03.695Z,100452.34
2024-04-16T12:36:31.496Z,100451.31
2024-04-16T12:38:58.202Z,100459.38
2024-04-16T12:41:25.181Z,100466.75
2024-04-16T12:43:51.883Z,100470.09
2024-04-16T12:46:18.488Z,100484.06
2024-04-16T12:48:45.200Z,100482.53
2024-04-16T12:51:11.826Z,100486.75
2024-04-16T12:53:38.893Z,100496.97
2024-04-16T12:56:08.323Z,100500.94
2024-04-16T12:58:34.999Z,100499.34
2024-04-16T13:01:01.763Z,100509.31
2024-04-16T13:03:28.484Z,100518.91
2024-04-16T13:05:55.137Z,100511.50
2024-04-16T13:08:21.729Z,100520.81
2024-04-16T13:10:51.727Z,100515.63
2024-04-16T13:13:18.741Z,100469.22
2024-04-16T13:15:45.379Z,100518.44
2024-04-16T13:18:12.003Z,100524.28
2024-04-16T13:20:39.623Z,100530.50
2024-04-16T13:23:06.377Z,100534.81
2024-04-16T13:25:33.005Z,100533.09
2024-04-16T13:27:59.658Z,100536.88
2024-04-16T13:30:26.295Z,100538.84
2024-04-16T13:32:57.449Z,100540.50
2024-04-16T13:35:25.155Z,100535.31
2024-04-16T13:37:51.881Z,100545.06
2024-04-16T13:40:18.721Z,100545.63
2024-04-16T13:42:45.353Z,100553.88
2024-04-16T13:45:11.957Z,100553.75
2024-04-16T13:47:39.162Z,100563.84
2024-04-16T13:50:06.145Z,100554.66
2024-04-16T13:52:32.897Z,100552.06
2024-04-16T13:54:59.520Z,100561.69
2024-04-16T13:57:26.124Z,100561.47
2024-04-16T13:59:53.313Z,100563.56
2024-04-16T14:02:19.970Z,100572.78
2024-04-16T14:04:46.686Z,100578.75
2024-04-16T14:07:13.374Z,100568.00
2024-04-16T14:09:39.937Z,100578.84
2024-04-16T14:12:06.616Z,100583.06
2024-04-16T14:14:33.994Z,100581.81
2024-04-16T14:17:00.850Z,100585.44
2024-04-16T14:19:27.603Z,100586.53
2024-04-16T14:21:57.680Z,100594.94
2024-04-16T14:24:26.359Z,100594.38
2024-04-16T14:26:54.028Z,100595.81
2024-04-16T14:29:20.632Z,100611.09
2024-04-16T14:31:47.314Z,100610.78
2024-04-16T14:34:14.038Z,100622.34
2024-04-16T14:36:40.648Z,100623.94
2024-04-16T14:39:08.728Z,100629.56
2024-04-16T14:41:36.403Z,100635.19
2024-04-16T14:44:02.984Z,100636.72
2024-04-16T14:46:29.672Z,100634.00
2024-04-16T14:48:56.289Z,100638.66
2024-04-16T14:51:22.879Z,100634.16
2024-04-16T14:53:49.586Z,100641.34
2024-04-16T14:56:16.424Z,100647.72
2024-04-16T14:58:43.145Z,100658.63
2024-04-16T15:01:10.465Z,100663.03
2024-04-16T15:03:37.186Z,100658.56
2024-04-16T15:06:06.219Z,100651.47
2024-04-16T15:08:33.039Z,100668.97
2024-04-16T15:10:59.924Z,100677.13
2024-04-16T15:13:26.741Z,100679.72
2024-04-16T15:15:59.517Z,100680.00
2024-04-16T15:18:26.792Z,100684.09
2024-04-16T15:20:53.476Z,100687.31
2024-04-16T15:23:20.135Z,100669.06
2024-04-16T15:25:47.259Z,100694.72
2024-04-16T15:28:14.347Z,100695.34
2024-04-16T15:30:41.703Z,100707.78
2024-04-16T15:33:08.713Z,100684.97
2024-04-16T15:35:54.203Z,100707.56
2024-04-16T15:38:21.914Z,100699.19
2024-04-16T15:40:48.751Z,100709.97
2024-04-16T15:43:16.618Z,100683.06
2024-04-16T15:45:44.972Z,100703.16
2024-04-16T15:48:11.679Z,100706.56
2024-04-16T15:50:38.470Z,100700.56
2024-04-16T15:53:05.257Z,100705.00
2024-04-16T15:55:32.106Z,100711.84
2024-04-16T15:57:58.725Z,100716.03
2024-04-16T16:00:26.767Z,100720.81
2024-04-16T16:02:53.589Z,100737.38
2024-04-16T16:05:20.482Z,100726.38
2024-04-16T16:07:47.124Z,100741.31
2024-04-16T16:10:13.870Z,100738.50
2024-04-16T16:12:41.604Z,100747.63
2024-04-16T16:15:08.275Z,100745.16
2024-04-16T16:17:35.025Z,100748.97
2024-04-16T16:20:02.316Z,100755.03
2024-04-16T16:22:28.968Z,100754.50
2024-04-16T16:24:56.810Z,100771.81
2024-04-16T16:27:23.423Z,100774.22
2024-04-16T16:29:50.052Z,100768.13
2024-04-16T16:32:16.767Z,100781.75
2024-04-16T16:34:43.513Z,100784.91
2024-04-16T16:37:10.165Z,100788.88
2024-04-16T16:39:38.054Z,100792.41
2024-04-16T16:42:04.760Z,100783.06
2024-04-16T16:44:31.395Z,100796.13
2024-04-16T16:46:58.028Z,100792.13
2024-04-16T16:49:24.637Z,100794.38
2024-04-16T16:51:52.510Z,100800.38
2024-04-16T16:54:19.732Z,100810.78
2024-04-16T16:56:46.469Z,100808.84
2024-04-16T16:59:13.137Z,100805.38
2024-04-16T17:01:39.765Z,100811.59
2024-04-16T17:04:06.362Z,100821.06
2024-04-16T17:06:33.011Z,100822.84
2024-04-16T17:08:59.650Z,100835.31
2024-04-16T17:11:26.272Z,100839.78
2024-04-16T17:13:52.974Z,100833.97
2024-04-16T17:16:19.641Z,100845.44
2024-04-16T17:18:46.313Z,100851.03
2024-04-16T17:21:13.241Z,100858.03
2024-04-16T17:23:39.837Z,100853.53
2024-04-16T17:26:06.561Z,100850.00
2024-04-16T17:28:33.261Z,100855.97
2024-04-16T17:31:00.046Z,100867.59
2024-04-16T17:33:26.711Z,100868.97
2024-04-16T17:35:53.301Z,100874.03
2024-04-16T17:38:19.918Z,100882.13
2024-04-16T17:40:46.681Z,100876.28
2024-04-16T17:43:14.340Z,100869.13
2024-04-16T17:45:41.126Z,100876.47
2024-04-16T17:48:09.845Z,100884.34
2024-04-16T17:50:36.779Z,100895.44
2024-04-16T17:53:03.476Z,100890.78
2024-04-16T17:55:30.519Z,100896.19
2024-04-16T17:57:58.021Z,100902.38
2024-04-16T18:00:26.091Z,100900.47
2024-04-16T18:02:52.793Z,100910.22
2024-04-16T18:05:19.446Z,100914.31
2024-04-16T18:07:46.230Z,100923.72
2024-04-16T18:10:13.006Z,100934.59
2024-04-16T18:12:39.657Z,100927.63
2024-04-16T18:15:06.565Z,100934.75
2024-04-16T18:17:33.282Z,100940.44
2024-04-16T18:20:00.348Z,100946.72
2024-04-16T18:22:27.199Z,100944.47
2024-04-16T18:24:53.911Z,100952.56
2024-04-16T18:27:20.475Z,100955.16
2024-04-16T18:29:47.046Z,100964.38
2024-04-16T18:32:15.668Z,100959.00
2024-04-16T18:34:46.048Z,100960.28
2024-04-16T18:37:14.489Z,100962.19
2024-04-16T18:39:41.480Z,100975.75
2024-04-16T18:42:08.118Z,100981.41
2024-04-16T18:44:34.751Z,100978.94
2024-04-16T18:47:02.332Z,100986.88
2024-04-16T18:49:30.268Z,100991.34
2024-04-16T18:51:58.463Z,100999.13
2024-04-16T18:54:25.190Z,100994.56
2024-04-16T18:56:53.143Z,100996.00
2024-04-16T18:59:19.784Z,100996.66
2024-04-16T19:01:46.442Z,101001.63
2024-04-16T19:04:13.151Z,101012.31
2024-04-16T19:06:41.773Z,101005.13
2024-04-16T19:09:08.420Z,101015.50
2024-04-16T19:11:37.756Z,101019.66
2024-04-16T19:14:05.170Z,101022.38
2024-04-16T19:16:31.938Z,101029.81
2024-04-16T19:18:58.527Z,101033.00
2024-04-16T19:21:25.089Z,101037.38
2024-04-16T19:23:51.747Z,101046.31
2024-04-16T19:26:18.364Z,101044.25
2024-04-16T19:28:44.983Z,101043.44
2024-04-16T19:31:11.616Z,101054.91
2024-04-16T19:33:38.168Z,101053.28
2024-04-16T19:36:05.029Z,101059.13
2024-04-16T19:38:31.737Z,101050.97
2024-04-16T19:40:59.089Z,101059.88
2024-04-16T19:43:25.790Z,101062.47
2024-04-16T19:45:52.397Z,101066.00
2024-04-16T19:48:19.456Z,101066.13
2024-04-16T19:50:46.194Z,101066.13
2024-04-16T19:53:12.837Z,101070.13
2024-04-16T19:55:41.788Z,101083.38
2024-04-16T19:58:09.514Z,101084.63
2024-04-16T20:00:36.471Z,101089.00
2024-04-16T20:03:04.038Z,101076.94
2024-04-16T20:05:30.832Z,101075.16
2024-04-16T20:07:57.446Z,101089.72
2024-04-16T20:10:24.104Z,101090.16
2024-04-16T20:12:50.716Z,101096.16
2024-04-16T20:15:17.316Z,101092.88
2024-04-16T20:17:44.676Z,101093.75
2024-04-16T20:20:11.353Z,101098.00
2024-04-16T20:22:38.011Z,101106.16
2024-04-16T20:25:04.923Z,101101.69
2024-04-16T20:27:33.609Z,101111.94
2024-04-16T20:30:00.315Z,101113.03
2024-04-16T20:32:27.033Z,101110.47
2024-04-16T20:34:54.459Z,101118.25
2024-04-16T20:37:21.283Z,101118.81
2024-04-16T20:39:47.927Z,101107.16
2024-04-16T20:42:14.568Z,101126.84
2024-04-16T20:44:41.210Z,101126.59
2024-04-16T20:47:07.841Z,101129.44
2024-04-16T20:49:34.513Z,101129.09
2024-04-16T20:52:01.091Z,101126.66
2024-04-16T20:54:27.673Z,101137.63
2024-04-16T20:56:54.271Z,101142.28
2024-04-16T20:59:20.845Z,101141.22
2024-04-16T21:01:47.442Z,101135.66
2024-04-16T21:04:16.012Z,101141.47
2024-04-16T21:06:42.656Z,101142.72
2024-04-16T21:09:09.347Z,101141.34
2024-04-16T21:11:36.020Z,101137.56
2024-04-16T21:14:02.627Z,101135.38
2024-04-16T21:16:29.227Z,101122.56
2024-04-16T21:18:55.913Z,101138.63
2024-04-16T21:21:22.547Z,101137.56
2024-04-16T21:23:49.111Z,101133.59
2024-04-16T21:26:16.094Z,101145.16
2024-04-16T21:28:42.769Z,101144.47
2024-04-16T21:31:09.401Z,101126.28
2024-04-16T21:33:36.069Z,101140.41
2024-04-16T21:36:02.664Z,101145.84
2024-04-16T21:38:30.809Z,101141.09
2024-04-16T21:40:57.446Z,101145.84
2024-04-16T21:43:24.097Z,101144.78
2024-04-16T21:45:50.755Z,101153.19
2024-04-16T21:48:17.335Z,101148.56
2024-04-16T21:50:43.958Z,101156.31
2024-04-16T21:53:10.523Z,101152.66
2024-04-16T21:55:37.152Z,101159.03
2024-04-16T21:58:03.766Z,101153.19
2024-04-16T22:00:30.343Z,101156.59
2024-04-16T22:03:01.264Z,101160.41
2024-04-16T22:05:28.146Z,101164.63
2024-04-16T22:07:59.055Z,101166.31
2024-04-16T22:10:26.871Z,101166.44
2024-04-16T22:12:53.856Z,101165.75
2024-04-16T22:16:16.795Z,101173.34
2024-04-16T22:19:39.626Z,101174.44
2024-04-16T22:23:02.772Z,101179.75
2024-04-16T22:25:29.368Z,101180.97
2024-04-16T22:27:55.967Z,101178.50
2024-04-16T22:30:22.524Z,101189.66
2024-04-16T22:32:49.423Z,101189.66
2024-04-16T22:35:16.308Z,101187.34
2024-04-16T22:37:42.932Z,101203.94
2024-04-16T22:40:09.652Z,101196.31
2024-04-16T22:42:36.238Z,101194.81
2024-04-16T22:45:02.934Z,101201.75
2024-04-16T22:47:29.525Z,101202.53
2024-04-16T22:49:58.323Z,101201.59
2024-04-16T22:52:24.892Z,101197.38
2024-04-16T22:54:51.507Z,101206.91
2024-04-16T22:57:18.451Z,101208.00
2024-04-16T22:59:47.849Z,101206.75
2024-04-16T23:02:14.611Z,101201.31
2024-04-16T23:04:41.310Z,101204.72
2024-04-16T23:07:07.912Z,101201.06
2024-04-16T23:09:34.501Z,101202.28
2024-04-16T23:12:01.088Z,101198.31
2024-04-16T23:14:27.830Z,101203.09
2024-04-16T23:16:54.435Z,101201.81
2024-04-16T23:19:21.068Z,101205.50
2024-04-16T23:21:47.718Z,101206.03
2024-04-16T23:24:14.323Z,101206.72
2024-04-16T23:26:41.009Z,101203.16
2024-04-16T23:29:07.563Z,101202.09
2024-04-16T23:31:34.169Z,101201.97
2024-04-16T23:34:00.737Z,101201.00
2024-04-16T23:36:27.443Z,101198.28
2024-04-16T23:38:54.178Z,101193.38
2024-04-16T23:41:20.749Z,101193.75
2024-04-16T23:43:47.358Z,101192.28
2024-04-16T23:46:13.955Z,101192.16
2024-04-16T23:48:40.606Z,101186.31
2024-04-16T23:51:07.216Z,101187.50
2024-04-16T23:53:33.779Z,101188.59
2024-04-16T23:56:00.485Z,101186.91
2024-04-16T23:58:27.118Z,101181.06
